Terminal Aerodrome Forecast
Issued by NWS

Current Version | Previous Version | Text Only | Print | Product List | Glossary On
Versions: 1 2 3 4 5 6 7 8 9 10 11 12 13 14 15 16
000
FTUS43 KIND 140500
TAFBMG
TAF
KBMG 140525Z 1406/1506 VRB02KT P6SM SCT050 BKN100
      TEMPO 1409/1413 3SM BR
     FM141300 26004KT P6SM SCT040 BKN100
     FM141800 28008KT P6SM VCTS BKN040CB
     FM150400 31006KT P6SM BKN035
      AMD LTD TO CLD VIS AND WIND TIL 141300=

USA.gov is the U.S. government's official web portal to all federal, state and local government web resources and services.